createdAt,value
2019-05-12T00:00:13.573Z,28.32
2019-05-12T00:02:44.570Z,30.32
2019-05-12T00:05:14.829Z,29.80
2019-05-12T00:07:48.403Z,30.30
2019-05-12T00:10:19.401Z,29.95
2019-05-12T00:12:50.884Z,32.03
2019-05-12T00:15:21.327Z,30.72
2019-05-12T00:17:52.828Z,30.68
2019-05-12T00:20:23.416Z,30.20
2019-05-12T00:22:58.316Z,31.20
2019-05-12T00:25:28.948Z,31.73
2019-05-12T00:28:01.616Z,29.72
2019-05-12T00:30:39.181Z,29.50
2019-05-12T00:33:10.664Z,29.07
2019-05-12T00:35:41.988Z,29.50
2019-05-12T00:38:13.633Z,31.90
2019-05-12T00:40:43.787Z,29.77
2019-05-12T00:43:18.924Z,27.73
2019-05-12T00:45:51.796Z,26.90
2019-05-12T00:48:25.225Z,26.33
2019-05-12T00:50:58.383Z,27.93
2019-05-12T00:53:39.675Z,26.75
2019-05-12T00:56:03.005Z,25.12
2019-05-12T00:58:35.232Z,24.35
2019-05-12T01:01:07.986Z,25.40
2019-05-12T01:03:38.266Z,24.90
2019-05-12T01:06:08.609Z,24.50
2019-05-12T01:08:38.849Z,25.82
2019-05-12T01:11:10.214Z,25.77
2019-05-12T01:13:41.651Z,25.02
2019-05-12T01:16:12.901Z,24.52
2019-05-12T01:18:44.481Z,23.55
2019-05-12T01:21:15.519Z,23.47
2019-05-12T01:24:03.366Z,24.77
2019-05-12T01:26:32.896Z,24.65
2019-05-12T01:29:05.164Z,25.12
2019-05-12T01:31:39.832Z,25.68
2019-05-12T01:34:13.071Z,24.25
2019-05-12T01:36:43.651Z,25.32
2019-05-12T01:39:13.738Z,23.38
2019-05-12T01:41:44.841Z,24.02
2019-05-12T01:44:18.208Z,21.80
2019-05-12T01:46:49.591Z,25.50
2019-05-12T01:49:20.181Z,24.20
2019-05-12T01:51:51.770Z,23.80
2019-05-12T01:54:21.814Z,23.77
2019-05-12T01:56:54.391Z,23.38
2019-05-12T01:59:28.719Z,24.67
2019-05-12T02:01:58.972Z,23.67
2019-05-12T02:04:32.011Z,24.43
2019-05-12T02:07:04.201Z,22.82
2019-05-12T02:09:35.800Z,23.50
2019-05-12T02:12:08.209Z,24.43
2019-05-12T02:14:39.191Z,22.95
2019-05-12T02:17:11.812Z,25.17
2019-05-12T02:19:44.719Z,23.73
2019-05-12T02:22:15.274Z,23.35
2019-05-12T02:24:47.867Z,22.77
2019-05-12T02:27:19.356Z,25.25
2019-05-12T02:29:49.756Z,24.55
2019-05-12T02:32:23.767Z,24.05
2019-05-12T02:34:54.746Z,24.47
2019-05-12T02:37:26.201Z,23.30
2019-05-12T02:39:57.840Z,25.08
2019-05-12T02:42:29.266Z,23.18
2019-05-12T02:44:59.616Z,23.55
2019-05-12T02:47:30.832Z,24.77
2019-05-12T02:50:00.943Z,26.42
2019-05-12T02:52:34.763Z,24.25
2019-05-12T02:55:06.833Z,24.45
2019-05-12T02:57:39.881Z,24.10
2019-05-12T03:00:16.050Z,23.50
2019-05-12T03:02:46.176Z,22.45
2019-05-12T03:05:20.962Z,24.10
2019-05-12T03:07:55.267Z,22.55
2019-05-12T03:10:27.266Z,24.65
2019-05-12T03:12:57.827Z,22.52
2019-05-12T03:15:28.186Z,23.15
2019-05-12T03:17:58.831Z,22.77
2019-05-12T03:20:29.210Z,22.25
2019-05-12T03:23:11.284Z,22.85
2019-05-12T03:25:45.620Z,23.18
2019-05-12T03:28:16.629Z,21.35
2019-05-12T03:30:48.835Z,22.10
2019-05-12T03:33:20.057Z,22.73
2019-05-12T03:36:00.181Z,23.15
2019-05-12T03:38:27.693Z,22.40
2019-05-12T03:40:58.153Z,22.13
2019-05-12T03:43:30.991Z,21.48
2019-05-12T03:46:04.957Z,21.82
2019-05-12T03:48:35.076Z,21.85
2019-05-12T03:51:06.448Z,21.97
2019-05-12T03:53:37.572Z,20.37
2019-05-12T03:56:08.685Z,20.70
2019-05-12T03:58:39.153Z,21.12
2019-05-12T04:01:11.004Z,20.30
2019-05-12T04:03:44.789Z,20.90
2019-05-12T04:06:15.599Z,20.37
2019-05-12T04:08:46.632Z,19.77
2019-05-12T04:11:17.778Z,19.73
2019-05-12T04:13:49.475Z,20.68
2019-05-12T04:16:24.435Z,22.52
2019-05-12T04:18:55.212Z,20.70
2019-05-12T04:21:25.335Z,20.65
2019-05-12T04:23:58.937Z,22.02
2019-05-12T04:26:35.785Z,21.27
2019-05-12T04:29:05.289Z,20.43
2019-05-12T04:31:39.199Z,21.80
2019-05-12T04:34:14.293Z,21.00
2019-05-12T04:36:44.977Z,21.07
2019-05-12T04:39:19.387Z,20.20
2019-05-12T04:41:54.999Z,21.00
2019-05-12T04:44:25.940Z,21.27
2019-05-12T04:47:00.203Z,19.87
2019-05-12T04:49:30.773Z,21.30
2019-05-12T04:52:04.984Z,20.43
2019-05-12T04:54:35.566Z,19.35
2019-05-12T04:57:07.232Z,20.77
2019-05-12T04:59:39.392Z,20.20
2019-05-12T05:02:15.057Z,19.50
2019-05-12T05:04:46.886Z,19.37
2019-05-12T05:07:18.783Z,19.85
2019-05-12T05:09:51.029Z,20.20
2019-05-12T05:12:24.014Z,19.62
2019-05-12T05:14:57.657Z,18.52
2019-05-12T05:17:30.300Z,18.12
2019-05-12T05:20:00.808Z,17.52
2019-05-12T05:22:33.431Z,18.60
2019-05-12T05:25:04.783Z,17.73
2019-05-12T05:27:36.784Z,17.82
2019-05-12T05:30:07.940Z,17.48
2019-05-12T05:32:38.855Z,17.35
2019-05-12T05:35:13.317Z,16.82
2019-05-12T05:37:44.735Z,16.75
2019-05-12T05:40:19.924Z,16.62
2019-05-12T05:42:48.795Z,17.55
2019-05-12T05:45:24.163Z,16.65
2019-05-12T05:47:59.549Z,17.98
2019-05-12T05:50:30.174Z,17.55
2019-05-12T05:53:00.509Z,16.62
2019-05-12T05:55:34.406Z,16.95
2019-05-12T05:58:10.095Z,15.25
2019-05-12T06:00:39.275Z,16.30
2019-05-12T06:03:17.044Z,17.52
2019-05-12T06:05:42.886Z,16.97
2019-05-12T06:08:18.583Z,17.37
2019-05-12T06:10:50.374Z,17.20
2019-05-12T06:13:29.956Z,17.37
2019-05-12T06:15:55.977Z,18.17
2019-05-12T06:18:29.129Z,16.75
2019-05-12T06:21:03.490Z,16.75
2019-05-12T06:23:39.182Z,18.48
2019-05-12T06:26:10.732Z,16.00
2019-05-12T06:28:45.468Z,15.83
2019-05-12T06:31:18.988Z,16.80
2019-05-12T06:33:53.614Z,15.70
2019-05-12T06:36:27.209Z,16.57
2019-05-12T06:39:00.915Z,15.55
2019-05-12T06:41:33.642Z,15.50
2019-05-12T06:44:08.733Z,16.50
2019-05-12T06:46:44.102Z,14.87
2019-05-12T06:49:17.519Z,15.60
2019-05-12T06:51:53.675Z,16.48
2019-05-12T06:54:24.760Z,15.48
2019-05-12T06:57:18.548Z,16.10
2019-05-12T06:59:33.903Z,15.38
2019-05-12T07:02:08.379Z,16.97
2019-05-12T07:04:47.452Z,16.35
2019-05-12T07:07:15.659Z,14.70
2019-05-12T07:09:53.757Z,14.83
2019-05-12T07:12:26.895Z,13.95
2019-05-12T07:14:57.083Z,14.18
2019-05-12T07:17:43.918Z,14.50
2019-05-12T07:20:10.245Z,13.68
2019-05-12T07:22:45.811Z,13.30
2019-05-12T07:25:15.699Z,13.58
2019-05-12T07:27:54.971Z,13.13
2019-05-12T07:30:32.662Z,13.00
2019-05-12T07:33:04.843Z,14.30
2019-05-12T07:35:36.515Z,12.90
2019-05-12T07:38:12.030Z,13.32
2019-05-12T07:40:44.789Z,12.65
2019-05-12T07:43:20.511Z,12.93
2019-05-12T07:45:56.637Z,11.38
2019-05-12T07:48:26.620Z,12.03
2019-05-12T07:51:00.535Z,11.93
2019-05-12T07:53:30.920Z,11.55
2019-05-12T07:56:04.105Z,10.30
2019-05-12T07:58:41.054Z,10.65
2019-05-12T08:01:11.211Z,10.03
2019-05-12T08:03:43.665Z,10.28
2019-05-12T08:06:16.096Z,10.05
2019-05-12T08:09:13.429Z,9.65
2019-05-12T08:11:47.028Z,10.13
2019-05-12T08:14:25.946Z,9.65
2019-05-12T08:16:54.960Z,10.28
2019-05-12T08:19:28.633Z,8.95
2019-05-12T08:22:00.605Z,8.65
2019-05-12T08:24:35.391Z,8.73
2019-05-12T08:27:06.976Z,7.78
2019-05-12T08:29:43.309Z,7.65
2019-05-12T08:32:20.509Z,8.65
2019-05-12T08:34:54.142Z,8.48
2019-05-12T08:37:29.534Z,8.43
2019-05-12T08:40:04.354Z,8.35
2019-05-12T08:42:35.186Z,8.30
2019-05-12T08:45:13.672Z,7.05
2019-05-12T08:47:41.257Z,7.37
2019-05-12T08:50:15.450Z,6.95
2019-05-12T08:52:47.132Z,8.00
2019-05-12T08:55:22.781Z,7.05
2019-05-12T08:57:54.060Z,6.50
2019-05-12T09:00:39.730Z,6.83
2019-05-12T09:03:10.939Z,7.37
2019-05-12T09:05:44.330Z,6.90
2019-05-12T09:08:16.480Z,6.53
2019-05-12T09:10:50.388Z,6.47
2019-05-12T09:13:23.473Z,6.58
2019-05-12T09:15:55.587Z,5.97
2019-05-12T09:18:33.507Z,5.83
2019-05-12T09:21:00.832Z,5.70
2019-05-12T09:23:41.121Z,5.28
2019-05-12T09:26:09.603Z,6.00
2019-05-12T09:31:33.784Z,5.70
2019-05-12T09:34:11.985Z,5.90
2019-05-12T09:36:51.889Z,5.53
2019-05-12T09:39:23.487Z,5.05
2019-05-12T09:41:57.190Z,5.58
2019-05-12T09:44:30.562Z,5.22
2019-05-12T09:47:04.098Z,5.30
2019-05-12T09:49:39.229Z,5.72
2019-05-12T09:52:13.818Z,5.53
2019-05-12T09:54:49.393Z,4.75
2019-05-12T09:57:20.134Z,4.25
2019-05-12T09:59:59.503Z,4.83
2019-05-12T10:02:26.667Z,4.60
2019-05-12T10:05:03.717Z,4.80
2019-05-12T10:07:35.231Z,4.50
2019-05-12T10:10:06.888Z,4.97
2019-05-12T10:12:46.351Z,4.25
2019-05-12T10:15:26.681Z,3.98
2019-05-12T10:18:00.129Z,4.22
2019-05-12T10:20:40.835Z,3.87
2019-05-12T10:23:16.524Z,4.15
2019-05-12T10:25:47.612Z,3.62
2019-05-12T10:28:18.727Z,4.03
2019-05-12T10:30:56.816Z,4.15
2019-05-12T10:33:26.941Z,4.33
2019-05-12T10:36:06.806Z,4.20
2019-05-12T10:38:39.301Z,3.83
2019-05-12T10:41:14.288Z,4.28
2019-05-12T10:43:56.660Z,4.35
2019-05-12T10:46:53.795Z,4.67
2019-05-12T10:49:33.895Z,4.67
2019-05-12T10:52:14.168Z,4.30
2019-05-12T10:54:46.439Z,3.90
2019-05-12T10:57:19.448Z,3.95
2019-05-12T10:59:53.380Z,4.65
2019-05-12T11:02:30.478Z,3.70
2019-05-12T11:05:00.800Z,4.97
2019-05-12T11:07:34.082Z,3.72
2019-05-12T11:10:15.431Z,3.27
2019-05-12T11:12:40.342Z,3.25
2019-05-12T11:15:26.583Z,3.02
2019-05-12T11:18:08.970Z,3.27
2019-05-12T11:20:41.989Z,3.30
2019-05-12T11:23:14.190Z,2.83
2019-05-12T11:25:46.907Z,2.58
2019-05-12T11:28:19.817Z,2.85
2019-05-12T11:30:51.443Z,2.62
2019-05-12T11:33:23.818Z,2.80
2019-05-12T11:35:56.153Z,3.20
2019-05-12T11:38:29.429Z,3.12
2019-05-12T11:41:00.144Z,2.80
2019-05-12T11:43:33.729Z,2.58
2019-05-12T11:46:08.680Z,2.80
2019-05-12T11:48:40.461Z,2.60
2019-05-12T11:51:14.525Z,3.02
2019-05-12T11:53:45.342Z,2.50
2019-05-12T11:56:17.150Z,2.90
2019-05-12T11:58:51.474Z,3.00
2019-05-12T12:01:24.261Z,2.75
2019-05-12T12:03:56.567Z,3.08
2019-05-12T12:06:28.588Z,2.90
2019-05-12T12:09:00.828Z,3.02
2019-05-12T12:11:35.028Z,2.80
2019-05-12T12:14:10.664Z,3.05
2019-05-12T12:16:50.109Z,2.90
2019-05-12T12:19:19.421Z,2.58
2019-05-12T12:21:53.573Z,2.92
2019-05-12T12:24:31.207Z,3.30
2019-05-12T12:27:00.647Z,3.10
2019-05-12T12:29:34.538Z,3.12
2019-05-12T12:32:18.359Z,3.47
2019-05-12T12:34:49.438Z,2.83
2019-05-12T12:37:24.093Z,2.60
2019-05-12T12:39:58.222Z,2.60
2019-05-12T12:42:35.881Z,3.37
2019-05-12T12:45:16.078Z,2.75
2019-05-12T12:47:49.353Z,3.20
2019-05-12T12:50:26.398Z,2.58
2019-05-12T12:52:56.064Z,3.05
2019-05-12T12:55:26.797Z,2.83
2019-05-12T12:57:58.879Z,2.80
2019-05-12T13:00:38.029Z,3.27
2019-05-12T13:03:05.788Z,2.80
2019-05-12T13:05:36.980Z,2.80
2019-05-12T13:08:09.725Z,2.95
2019-05-12T13:10:46.179Z,2.47
2019-05-12T13:13:14.191Z,2.65
2019-05-12T13:15:45.798Z,2.67
2019-05-12T13:18:32.881Z,3.00
2019-05-12T13:21:03.365Z,3.12
2019-05-12T13:23:40.766Z,3.12
2019-05-12T13:26:13.348Z,3.02
2019-05-12T13:28:52.993Z,3.15
2019-05-12T13:31:18.820Z,3.37
2019-05-12T13:33:54.950Z,3.12
2019-05-12T13:36:35.481Z,2.98
2019-05-12T13:39:11.346Z,2.80
2019-05-12T13:41:39.151Z,2.77
2019-05-12T13:44:10.448Z,2.92
2019-05-12T13:46:43.701Z,3.12
2019-05-12T13:49:15.963Z,3.37
2019-05-12T13:51:50.415Z,3.33
2019-05-12T13:54:28.544Z,2.75
2019-05-12T13:56:57.379Z,2.98
2019-05-12T13:59:30.464Z,3.15
2019-05-12T14:02:03.398Z,3.22
2019-05-12T14:04:35.197Z,3.02
2019-05-12T14:07:09.235Z,3.05
2019-05-12T14:09:43.585Z,3.22
2019-05-12T14:12:15.221Z,3.20
2019-05-12T14:14:46.973Z,3.27
2019-05-12T14:17:19.437Z,2.85
2019-05-12T14:19:53.293Z,3.30
2019-05-12T14:22:26.593Z,3.45
2019-05-12T14:25:01.979Z,2.95
2019-05-12T14:27:33.689Z,3.12
2019-05-12T14:30:09.886Z,3.47
2019-05-12T14:32:38.433Z,3.33
2019-05-12T14:35:09.432Z,2.98
2019-05-12T14:37:45.991Z,4.37
2019-05-12T14:40:21.135Z,3.70
2019-05-12T14:42:49.668Z,4.62
2019-05-12T14:45:25.691Z,4.72
2019-05-12T14:47:54.119Z,6.50
2019-05-12T14:50:25.119Z,5.35
2019-05-12T14:52:59.747Z,5.90
2019-05-12T14:55:33.561Z,5.10
2019-05-12T14:58:09.351Z,5.85
2019-05-12T15:00:40.032Z,7.45
2019-05-12T15:03:16.261Z,7.03
2019-05-12T15:05:48.713Z,7.45
2019-05-12T15:08:35.972Z,7.75
2019-05-12T15:11:03.947Z,7.83
2019-05-12T15:13:35.757Z,8.30
2019-05-12T15:16:08.490Z,7.65
2019-05-12T15:18:46.560Z,7.25
2019-05-12T15:21:21.418Z,7.53
2019-05-12T15:23:53.187Z,7.22
2019-05-12T15:26:26.362Z,7.15
2019-05-12T15:28:59.291Z,8.60
2019-05-12T15:31:33.703Z,8.65
2019-05-12T15:34:09.189Z,8.78
2019-05-12T15:36:45.933Z,9.25
2019-05-12T15:39:15.424Z,10.65
2019-05-12T15:41:46.304Z,9.13
2019-05-12T15:44:23.221Z,8.50
2019-05-12T15:46:57.605Z,8.30
2019-05-12T15:49:29.088Z,9.58
2019-05-12T15:52:03.539Z,7.15
2019-05-12T15:54:36.385Z,7.75
2019-05-12T15:57:06.878Z,8.05
2019-05-12T15:59:38.337Z,6.33
2019-05-12T16:02:14.619Z,7.05
2019-05-12T16:04:44.443Z,6.45
2019-05-12T16:07:17.909Z,5.62
2019-05-12T16:09:50.677Z,6.72
2019-05-12T16:12:24.394Z,6.30
2019-05-12T16:14:56.245Z,5.62
2019-05-12T16:17:29.239Z,6.28
2019-05-12T16:20:09.075Z,5.78
2019-05-12T16:22:49.351Z,5.58
2019-05-12T16:25:27.368Z,5.65
2019-05-12T16:28:07.765Z,5.12
2019-05-12T16:30:43.886Z,5.67
2019-05-12T16:33:39.732Z,5.22
2019-05-12T16:36:26.771Z,6.37
2019-05-12T16:39:17.095Z,6.20
2019-05-12T16:42:08.282Z,5.70
2019-05-12T16:45:23.470Z,5.30
2019-05-12T16:48:28.654Z,5.70
2019-05-12T16:51:16.933Z,5.40
2019-05-12T16:54:48.695Z,5.47
2019-05-12T16:57:33.622Z,4.90
2019-05-12T17:00:31.125Z,5.70
2019-05-12T17:03:18.188Z,5.50
2019-05-12T17:06:14.284Z,5.72
2019-05-12T17:09:21.343Z,7.30
2019-05-12T17:12:15.929Z,5.08
2019-05-12T17:15:14.607Z,5.72
2019-05-12T17:18:04.405Z,6.17
2019-05-12T17:21:00.583Z,5.47
2019-05-12T17:23:53.118Z,5.78
2019-05-12T17:26:38.237Z,5.65
2019-05-12T17:29:33.418Z,5.33
2019-05-12T17:32:13.387Z,5.42
2019-05-12T17:34:59.192Z,6.08
2019-05-12T17:37:37.458Z,5.80
2019-05-12T17:40:09.184Z,5.50
2019-05-12T17:42:44.111Z,5.05
2019-05-12T17:45:23.561Z,5.78
2019-05-12T17:48:02.858Z,6.05
2019-05-12T17:50:34.613Z,6.17
2019-05-12T17:53:07.301Z,6.25
2019-05-12T17:55:44.359Z,6.03
2019-05-12T17:58:13.691Z,7.28
2019-05-12T18:00:51.688Z,6.03
2019-05-12T18:03:25.550Z,5.70
2019-05-12T18:05:55.218Z,6.87
2019-05-12T18:08:32.433Z,5.90
2019-05-12T18:11:03.697Z,6.58
2019-05-12T18:13:39.802Z,6.15
2019-05-12T18:16:11.550Z,5.95
2019-05-12T18:18:49.294Z,6.65
2019-05-12T18:21:21.895Z,7.30
2019-05-12T18:24:00.466Z,6.37
2019-05-12T18:26:29.475Z,6.80
2019-05-12T18:29:00.383Z,5.90
2019-05-12T18:31:33.966Z,6.87
2019-05-12T18:34:25.126Z,6.10
2019-05-12T18:37:00.386Z,6.30
2019-05-12T18:39:34.420Z,6.80
2019-05-12T18:42:06.873Z,5.05
2019-05-12T18:44:37.472Z,5.40
2019-05-12T18:47:13.427Z,6.33
2019-05-12T18:49:47.897Z,5.25
2019-05-12T18:52:19.710Z,5.85
2019-05-12T18:54:52.604Z,4.35
2019-05-12T18:57:24.567Z,4.67
2019-05-12T19:00:03.495Z,4.50
2019-05-12T19:02:33.451Z,4.78
2019-05-12T19:05:05.870Z,4.60
2019-05-12T19:07:40.133Z,4.45
2019-05-12T19:10:19.738Z,4.05
2019-05-12T19:13:01.316Z,4.85
2019-05-12T19:15:35.859Z,4.70
2019-05-12T19:18:10.699Z,6.03
2019-05-12T19:20:48.162Z,3.87
2019-05-12T19:23:26.001Z,4.17
2019-05-12T19:25:57.008Z,4.28
2019-05-12T19:28:31.037Z,3.70
2019-05-12T19:31:09.984Z,3.77
2019-05-12T19:33:49.034Z,3.55
2019-05-12T19:36:27.195Z,4.37
2019-05-12T19:39:09.912Z,4.05
2019-05-12T19:41:43.471Z,3.40
2019-05-12T19:44:20.086Z,3.80
2019-05-12T19:46:54.111Z,4.40
2019-05-12T19:49:43.428Z,3.95
2019-05-12T19:52:03.585Z,3.85
2019-05-12T19:54:40.138Z,3.95
2019-05-12T19:57:21.608Z,4.03
2019-05-12T19:59:50.895Z,3.50
2019-05-12T20:02:24.244Z,3.83
2019-05-12T20:04:56.969Z,3.55
2019-05-12T20:07:37.360Z,3.50
2019-05-12T20:10:13.899Z,3.33
2019-05-12T20:12:48.848Z,3.62
2019-05-12T20:15:23.987Z,3.50
2019-05-12T20:17:59.385Z,3.00
2019-05-12T20:20:36.596Z,3.42
2019-05-12T20:23:03.612Z,3.80
2019-05-12T20:25:38.541Z,3.30
2019-05-12T20:28:14.442Z,3.52
2019-05-12T20:30:43.962Z,3.75
2019-05-12T20:33:18.706Z,3.20
2019-05-12T20:35:51.146Z,3.22
2019-05-12T20:38:25.445Z,3.35
2019-05-12T20:40:58.802Z,3.37
2019-05-12T20:43:35.597Z,2.58
2019-05-12T20:46:13.044Z,3.20
2019-05-12T20:48:45.483Z,2.80
2019-05-12T20:51:20.086Z,3.17
2019-05-12T20:53:50.843Z,3.08
2019-05-12T20:56:24.973Z,2.98
2019-05-12T20:58:56.977Z,3.17
2019-05-12T21:01:30.368Z,3.22
2019-05-12T21:04:03.612Z,2.70
2019-05-12T21:06:41.586Z,2.80
2019-05-12T21:09:09.289Z,3.17
2019-05-12T21:11:44.237Z,3.08
2019-05-12T21:14:16.597Z,2.85
2019-05-12T21:16:50.305Z,2.77
2019-05-12T21:19:24.084Z,2.83
2019-05-12T21:21:59.174Z,2.77
2019-05-12T21:24:35.946Z,3.00
2019-05-12T21:27:03.831Z,2.75
2019-05-12T21:29:35.316Z,2.85
2019-05-12T21:32:12.029Z,2.87
2019-05-12T21:34:43.549Z,2.77
2019-05-12T21:37:16.011Z,2.87
2019-05-12T21:39:50.921Z,2.50
2019-05-12T21:42:24.925Z,2.92
2019-05-12T21:44:56.803Z,3.25
2019-05-12T21:47:36.432Z,2.65
2019-05-12T21:50:03.945Z,2.37
2019-05-12T21:52:39.131Z,2.80
2019-05-12T21:55:15.390Z,3.15
2019-05-12T21:57:43.732Z,2.80
2019-05-12T22:00:24.629Z,2.55
2019-05-12T22:03:02.593Z,2.60
2019-05-12T22:05:48.149Z,2.80
2019-05-12T22:08:06.399Z,2.50
2019-05-12T22:10:37.737Z,2.70
2019-05-12T22:13:15.210Z,2.42
2019-05-12T22:15:44.221Z,2.77
2019-05-12T22:18:15.916Z,2.30
2019-05-12T22:20:52.306Z,2.25
2019-05-12T22:23:21.117Z,2.58
2019-05-12T22:25:55.612Z,2.05
2019-05-12T22:28:28.424Z,2.77
2019-05-12T22:30:59.242Z,2.58
2019-05-12T22:33:33.429Z,2.20
2019-05-12T22:36:14.537Z,2.33
2019-05-12T22:38:39.257Z,2.35
2019-05-12T22:41:13.644Z,2.30
2019-05-12T22:43:46.230Z,2.25
2019-05-12T22:46:23.300Z,2.40
2019-05-12T22:48:53.546Z,2.58
2019-05-12T22:51:26.836Z,2.08
2019-05-12T22:54:00.406Z,3.08
2019-05-12T22:56:34.306Z,2.37
2019-05-12T22:59:07.676Z,2.52
2019-05-12T23:01:41.612Z,2.83
2019-05-12T23:04:10.822Z,2.50
2019-05-12T23:06:46.658Z,2.65
2019-05-12T23:09:19.405Z,2.80
2019-05-12T23:11:53.587Z,3.10
2019-05-12T23:14:25.135Z,3.08
2019-05-12T23:17:00.254Z,2.20
2019-05-12T23:19:28.914Z,2.17
2019-05-12T23:21:59.362Z,2.25
2019-05-12T23:24:35.981Z,2.55
2019-05-12T23:27:05.915Z,2.35
2019-05-12T23:29:37.688Z,2.72
2019-05-12T23:32:11.956Z,2.72
2019-05-12T23:35:00.226Z,2.98
2019-05-12T23:37:38.360Z,2.65
2019-05-12T23:40:11.505Z,3.08
2019-05-12T23:42:40.846Z,2.55
2019-05-12T23:45:13.782Z,2.65
2019-05-12T23:47:46.368Z,2.92
2019-05-12T23:50:30.189Z,2.85
2019-05-12T23:53:03.863Z,2.37
2019-05-12T23:55:35.019Z,2.67
2019-05-12T23:58:05.574Z,2.62
